Time;durP1;ratioP1;P1;durP2;ratioP2;P2;SDS_P1;SDS_P2;PMS_P1;PMS_P2;Temp;Humidity;BMP_temperature;BMP_pressure;BME280_temperature;BME280_humidity;BME280_pressure;Samples;Min_cycle;Max_cycle;Signal;HPM_P1;HPM_P2
2021/04/30 00:01:23;;;;;;;22.00;19.95;;;;;;;;;;5094774;28;20404;-92
2021/04/30 00:03:49;;;;;;;22.20;20.20;;;;;;;;;;5094757;28;20430;-82
2021/04/30 00:06:15;;;;;;;23.27;21.15;;;;;;;;;;5076942;28;20369;-84
2021/04/30 00:08:41;;;;;;;25.00;22.70;;;;;;;;;;5076772;28;20376;-85
2021/04/30 00:11:07;;;;;;;23.80;21.60;;;;;;;;;;5094871;28;20845;-87
2021/04/30 00:13:35;;;;;;;23.30;21.10;;;;;;;;;;5076423;28;20377;-86
2021/04/30 00:16:01;;;;;;;21.17;19.27;;;;;;;;;;5077100;28;20373;-88
2021/04/30 00:18:27;;;;;;;20.77;18.73;;;;;;;;;;5076343;28;20383;-89
2021/04/30 00:20:55;;;;;;;20.25;18.45;;;;;;;;;;5076372;28;20430;-89
2021/04/30 00:23:28;;;;;;;19.95;18.17;;;;;;;;;;5076261;28;20364;-88
2021/04/30 00:25:55;;;;;;;19.85;18.05;;;;;;;;;;5094159;28;20371;-87
2021/04/30 00:28:21;;;;;;;19.52;17.73;;;;;;;;;;5076015;28;20423;-87
2021/04/30 00:30:48;;;;;;;19.80;18.00;;;;;;;;;;5094125;28;20368;-82
2021/04/30 00:33:14;;;;;;;20.53;18.57;;;;;;;;;;5094071;28;20372;-88
2021/04/30 00:35:41;;;;;;;18.90;17.10;;;;;;;;;;5093791;28;20368;-85
2021/04/30 00:38:07;;;;;;;19.05;17.15;;;;;;;;;;5076381;28;20430;-90
2021/04/30 00:40:33;;;;;;;20.25;18.25;;;;;;;;;;5076157;28;20372;-86
2021/04/30 00:42:59;;;;;;;19.73;18.02;;;;;;;;;;5094304;28;20361;-93
2021/04/30 00:45:25;;;;;;;19.52;17.83;;;;;;;;;;5094425;28;20461;-93
2021/04/30 00:47:53;;;;;;;19.08;17.35;;;;;;;;;;5094490;28;20367;-92
2021/04/30 00:50:19;;;;;;;18.83;17.15;;;;;;;;;;5093990;28;20896;-85
2021/04/30 00:52:45;;;;;;;18.13;16.50;;;;;;;;;;5094787;28;20361;-81
2021/04/30 00:55:13;;;;;;;19.52;17.83;;;;;;;;;;5094231;28;20373;-86
2021/04/30 00:57:40;;;;;;;18.63;16.85;;;;;;;;;;5076253;28;20711;-87
2021/04/30 01:00:07;;;;;;;19.83;18.10;;;;;;;;;;5094637;28;20368;-92
2021/04/30 01:02:33;;;;;;;19.98;18.17;;;;;;;;;;5075546;28;20380;-89
2021/04/30 01:05:01;;;;;;;19.43;17.63;;;;;;;;;;5093870;28;20400;-87
2021/04/30 01:07:27;;;;;;;19.07;17.20;;;;;;;;;;5093964;28;20830;-89
2021/04/30 01:09:55;;;;;;;19.38;17.50;;;;;;;;;;5093214;28;20361;-89
2021/04/30 01:12:21;;;;;;;18.10;16.60;;;;;;;;;;5075372;28;20417;-87
2021/04/30 01:14:47;;;;;;;18.60;16.80;;;;;;;;;;5093636;28;20392;-89
2021/04/30 01:17:13;;;;;;;18.23;16.42;;;;;;;;;;5093149;28;20368;-85
2021/04/30 01:19:39;;;;;;;17.75;15.93;;;;;;;;;;5075074;28;20384;-92
2021/04/30 01:22:05;;;;;;;17.63;15.98;;;;;;;;;;5093727;28;20399;-86
2021/04/30 01:24:31;;;;;;;18.20;16.50;;;;;;;;;;5092853;28;20411;-84
2021/04/30 01:26:57;;;;;;;18.35;16.65;;;;;;;;;;5093193;28;20386;-92
2021/04/30 01:29:26;;;;;;;19.00;16.73;;;;;;;;;;5075525;28;20387;-86
2021/04/30 01:31:52;;;;;;;19.15;17.45;;;;;;;;;;5093090;28;20361;-85
2021/04/30 01:34:18;;;;;;;18.47;16.73;;;;;;;;;;5075427;28;20379;-88
2021/04/30 01:36:44;;;;;;;18.02;16.42;;;;;;;;;;5093208;28;20373;-87
2021/04/30 01:39:12;;;;;;;18.88;17.15;;;;;;;;;;5074952;28;20825;-87
2021/04/30 01:41:38;;;;;;;18.15;16.48;;;;;;;;;;5074257;28;20373;-90
2021/04/30 01:44:11;;;;;;;19.08;17.27;;;;;;;;;;5093203;28;20388;-92
2021/04/30 01:46:37;;;;;;;18.50;16.70;;;;;;;;;;5094120;28;20372;-83
2021/04/30 01:49:04;;;;;;;19.20;17.50;;;;;;;;;;5078593;28;20367;-85
2021/04/30 01:51:30;;;;;;;18.90;17.13;;;;;;;;;;5092833;28;20360;-89
2021/04/30 01:53:56;;;;;;;19.60;17.80;;;;;;;;;;5074395;28;20869;-82
2021/04/30 01:56:22;;;;;;;20.00;18.20;;;;;;;;;;5074596;28;20376;-87
2021/04/30 01:58:48;;;;;;;19.27;17.58;;;;;;;;;;5092406;28;20371;-85
2021/04/30 02:01:15;;;;;;;19.52;17.73;;;;;;;;;;5074625;28;20400;-86
2021/04/30 02:03:41;;;;;;;21.08;19.08;;;;;;;;;;5092296;28;20987;-85
2021/04/30 02:06:07;;;;;;;19.98;18.25;;;;;;;;;;5092450;28;20447;-83
2021/04/30 02:08:33;;;;;;;20.13;18.20;;;;;;;;;;5074630;28;20365;-89
2021/04/30 02:10:59;;;;;;;21.03;18.90;;;;;;;;;;5092452;28;20455;-86
2021/04/30 02:13:25;;;;;;;20.90;19.00;;;;;;;;;;5092437;28;20360;-88
2021/04/30 02:15:52;;;;;;;20.65;18.65;;;;;;;;;;5091915;28;20467;-88
2021/04/30 02:18:18;;;;;;;21.30;19.30;;;;;;;;;;5074421;28;20371;-88
2021/04/30 02:20:44;;;;;;;20.55;18.50;;;;;;;;;;5092063;28;20423;-84
2021/04/30 02:23:11;;;;;;;21.63;19.63;;;;;;;;;;5092762;28;20391;-88
2021/04/30 02:25:37;;;;;;;21.27;19.38;;;;;;;;;;5092280;28;20840;-86
2021/04/30 02:28:04;;;;;;;21.63;19.63;;;;;;;;;;5091968;28;20445;-91
2021/04/30 02:30:31;;;;;;;21.25;19.30;;;;;;;;;;5092081;28;20384;-89
2021/04/30 02:32:57;;;;;;;22.58;20.48;;;;;;;;;;5073939;28;20373;-91
2021/04/30 02:35:25;;;;;;;21.85;19.80;;;;;;;;;;5074166;28;20696;-91
2021/04/30 02:37:51;;;;;;;22.77;20.67;;;;;;;;;;5074032;28;20382;-87
2021/04/30 02:40:18;;;;;;;23.45;21.30;;;;;;;;;;5092011;28;20722;-84
2021/04/30 02:42:45;;;;;;;23.35;21.15;;;;;;;;;;5091494;28;20368;-87
2021/04/30 02:45:12;;;;;;;24.88;22.42;;;;;;;;;;5073897;28;20399;-82
2021/04/30 02:47:40;;;;;;;24.60;22.30;;;;;;;;;;5091836;28;20361;-90
2021/04/30 02:50:06;;;;;;;24.52;22.33;;;;;;;;;;5073781;28;20369;-86
2021/04/30 02:52:32;;;;;;;25.63;23.13;;;;;;;;;;5073405;28;20463;-86
2021/04/30 02:54:58;;;;;;;29.30;26.60;;;;;;;;;;5091538;28;20439;-86
2021/04/30 02:57:25;;;;;;;28.58;25.98;;;;;;;;;;5090922;28;20460;-84
2021/04/30 02:59:51;;;;;;;31.38;28.27;;;;;;;;;;5091461;28;20396;-89
2021/04/30 03:02:17;;;;;;;33.07;29.90;;;;;;;;;;5091003;28;20742;-88
2021/04/30 03:04:43;;;;;;;33.22;30.10;;;;;;;;;;5094616;28;20395;-86
2021/04/30 03:07:09;;;;;;;35.60;32.13;;;;;;;;;;5093449;28;20443;-84
2021/04/30 03:09:35;;;;;;;35.22;31.83;;;;;;;;;;5093242;28;20361;-88
2021/04/30 03:12:01;;;;;;;33.90;30.63;;;;;;;;;;5092681;28;20364;-88
2021/04/30 03:14:27;;;;;;;32.80;29.65;;;;;;;;;;5073875;28;20376;-89
2021/04/30 03:16:53;;;;;;;33.72;30.67;;;;;;;;;;5090782;28;20379;-83
2021/04/30 03:19:19;;;;;;;33.53;30.25;;;;;;;;;;5090729;28;20372;-89
2021/04/30 03:21:45;;;;;;;34.22;30.92;;;;;;;;;;5073120;28;20858;-85
2021/04/30 03:24:11;;;;;;;34.40;31.05;;;;;;;;;;5090875;28;20399;-86
2021/04/30 03:26:38;;;;;;;33.10;30.00;;;;;;;;;;5076661;28;20459;-85
2021/04/30 03:29:04;;;;;;;31.55;28.63;;;;;;;;;;5097397;28;20366;-88
2021/04/30 03:31:31;;;;;;;33.33;30.17;;;;;;;;;;5097351;28;20399;-85
2021/04/30 03:33:57;;;;;;;33.05;29.90;;;;;;;;;;5079314;28;20402;-89
2021/04/30 03:36:23;;;;;;;31.85;28.90;;;;;;;;;;5079579;28;20375;-85
2021/04/30 03:38:50;;;;;;;32.13;29.13;;;;;;;;;;5082620;28;20429;-87
2021/04/30 03:41:16;;;;;;;30.73;27.83;;;;;;;;;;5081531;28;20379;-91
2021/04/30 03:43:42;;;;;;;30.60;27.80;;;;;;;;;;5099794;28;20360;-86
2021/04/30 03:46:08;;;;;;;29.95;27.25;;;;;;;;;;5083135;28;20451;-87
2021/04/30 03:48:34;;;;;;;29.55;26.85;;;;;;;;;;5079653;28;20371;-89
2021/04/30 03:51:00;;;;;;;29.35;26.67;;;;;;;;;;5097606;28;20368;-92
2021/04/30 03:53:27;;;;;;;29.05;26.35;;;;;;;;;;5079575;28;20376;-86
2021/04/30 03:55:53;;;;;;;29.55;26.73;;;;;;;;;;5097564;28;20372;-86
2021/04/30 03:58:20;;;;;;;28.10;25.60;;;;;;;;;;5097776;28;20474;-89
2021/04/30 04:00:46;;;;;;;28.45;25.75;;;;;;;;;;5097502;28;20731;-87
2021/04/30 04:03:12;;;;;;;29.25;26.55;;;;;;;;;;5079380;28;20459;-92
2021/04/30 04:05:38;;;;;;;29.48;26.63;;;;;;;;;;5097525;28;20467;-90
2021/04/30 04:08:05;;;;;;;29.50;26.65;;;;;;;;;;5079047;28;20396;-87
2021/04/30 04:10:31;;;;;;;29.27;26.52;;;;;;;;;;5079142;28;20368;-89
2021/04/30 04:12:57;;;;;;;29.45;26.65;;;;;;;;;;5079467;28;20943;-88
2021/04/30 04:15:24;;;;;;;29.30;26.60;;;;;;;;;;5097712;28;20372;-88
2021/04/30 04:17:50;;;;;;;30.00;27.20;;;;;;;;;;5079432;28;20372;-85
2021/04/30 04:20:16;;;;;;;30.75;27.67;;;;;;;;;;5097310;28;20387;-89
2021/04/30 04:22:42;;;;;;;30.13;27.35;;;;;;;;;;5079611;28;20357;-83
2021/04/30 04:25:08;;;;;;;30.73;27.83;;;;;;;;;;5097190;28;20380;-85
2021/04/30 04:27:34;;;;;;;30.73;27.88;;;;;;;;;;5079322;28;20692;-81
2021/04/30 04:30:00;;;;;;;29.77;26.88;;;;;;;;;;5079550;28;20411;-86
2021/04/30 04:32:26;;;;;;;29.27;26.60;;;;;;;;;;5097409;28;20408;-81
2021/04/30 04:34:52;;;;;;;29.33;26.73;;;;;;;;;;5079641;28;20369;-84
2021/04/30 04:37:18;;;;;;;30.33;27.50;;;;;;;;;;5096523;28;20356;-84
2021/04/30 04:39:44;;;;;;;29.35;26.65;;;;;;;;;;5093681;28;20368;-88
2021/04/30 04:42:10;;;;;;;29.73;27.13;;;;;;;;;;5094041;28;20367;-85
2021/04/30 04:44:36;;;;;;;29.03;26.47;;;;;;;;;;5075991;28;20959;-88
2021/04/30 04:47:03;;;;;;;29.13;26.33;;;;;;;;;;5093870;28;20375;-85
2021/04/30 04:49:29;;;;;;;29.60;26.80;;;;;;;;;;5075685;28;20388;-85
2021/04/30 04:51:55;;;;;;;28.40;25.85;;;;;;;;;;5093410;28;20822;-82
2021/04/30 04:54:22;;;;;;;28.70;26.02;;;;;;;;;;5075721;28;20714;-87
2021/04/30 04:56:48;;;;;;;27.73;25.23;;;;;;;;;;5093467;28;20951;-82
2021/04/30 04:59:14;;;;;;;29.45;26.85;;;;;;;;;;5093366;28;20429;-87
2021/04/30 05:01:40;;;;;;;28.25;25.65;;;;;;;;;;5075426;28;20387;-81
2021/04/30 05:04:06;;;;;;;29.95;27.15;;;;;;;;;;5093708;28;20859;-90
2021/04/30 05:06:32;;;;;;;27.83;25.30;;;;;;;;;;5093515;28;20367;-85
2021/04/30 05:08:58;;;;;;;28.33;25.70;;;;;;;;;;5075474;28;20365;-86
2021/04/30 05:11:24;;;;;;;27.52;25.13;;;;;;;;;;5093809;28;20390;-87
2021/04/30 05:13:50;;;;;;;26.95;24.55;;;;;;;;;;5093432;28;20408;-81
2021/04/30 05:16:16;;;;;;;25.87;23.47;;;;;;;;;;5075688;28;20361;-88
2021/04/30 05:18:43;;;;;;;26.67;24.27;;;;;;;;;;5089712;28;20368;-88
2021/04/30 05:21:09;;;;;;;25.80;23.50;;;;;;;;;;5092316;28;20384;-85
2021/04/30 05:23:37;;;;;;;26.50;24.00;;;;;;;;;;5092040;28;20360;-82
2021/04/30 05:26:03;;;;;;;26.23;23.90;;;;;;;;;;5073918;28;20407;-85
2021/04/30 05:28:30;;;;;;;26.25;23.85;;;;;;;;;;5093628;28;20398;-85
2021/04/30 05:30:56;;;;;;;24.77;22.37;;;;;;;;;;5092388;28;20367;-83
2021/04/30 05:33:22;;;;;;;24.05;21.70;;;;;;;;;;5092281;28;20360;-87
2021/04/30 05:35:48;;;;;;;22.75;20.75;;;;;;;;;;5073953;28;20376;-84
2021/04/30 05:38:15;;;;;;;21.38;19.48;;;;;;;;;;5074139;28;20877;-86
2021/04/30 05:40:41;;;;;;;22.15;20.20;;;;;;;;;;5092281;28;20835;-84
2021/04/30 05:43:07;;;;;;;22.23;20.23;;;;;;;;;;5074225;28;20418;-87
2021/04/30 05:45:33;;;;;;;21.83;19.73;;;;;;;;;;5091809;28;20384;-85
2021/04/30 05:47:59;;;;;;;19.90;18.10;;;;;;;;;;5073684;28;20887;-86
2021/04/30 05:50:25;;;;;;;19.92;18.10;;;;;;;;;;5091028;28;20360;-83
2021/04/30 05:52:51;;;;;;;18.73;16.92;;;;;;;;;;5073943;28;20373;-85
2021/04/30 05:55:17;;;;;;;18.40;16.70;;;;;;;;;;5091840;28;20360;-83
2021/04/30 05:57:43;;;;;;;16.90;15.43;;;;;;;;;;5091602;28;20392;-85
2021/04/30 06:00:10;;;;;;;16.38;14.85;;;;;;;;;;5073440;28;20411;-83
2021/04/30 06:02:37;;;;;;;16.00;14.50;;;;;;;;;;5091948;28;20372;-84
2021/04/30 06:05:04;;;;;;;14.40;13.05;;;;;;;;;;5073183;28;20411;-84
2021/04/30 06:07:30;;;;;;;14.93;13.53;;;;;;;;;;5073357;28;20395;-84
2021/04/30 06:09:56;;;;;;;12.07;10.98;;;;;;;;;;5091338;28;20438;-85
2021/04/30 06:12:22;;;;;;;13.02;11.70;;;;;;;;;;5091765;28;20819;-82
2021/04/30 06:14:48;;;;;;;14.13;12.82;;;;;;;;;;5091797;28;20368;-85
2021/04/30 06:17:14;;;;;;;13.13;12.03;;;;;;;;;;5091765;28;20353;-84
2021/04/30 06:19:40;;;;;;;13.27;12.07;;;;;;;;;;5091468;28;20382;-84
2021/04/30 06:22:06;;;;;;;13.50;12.30;;;;;;;;;;5073292;28;20439;-83
2021/04/30 06:24:32;;;;;;;13.50;12.30;;;;;;;;;;5091764;28;20450;-82
2021/04/30 06:26:58;;;;;;;14.55;13.15;;;;;;;;;;5073153;28;20368;-86
2021/04/30 06:29:24;;;;;;;13.10;11.80;;;;;;;;;;5091343;28;20392;-85
2021/04/30 06:31:51;;;;;;;11.80;10.70;;;;;;;;;;5091175;28;20862;-86
2021/04/30 06:34:17;;;;;;;11.50;10.43;;;;;;;;;;5090216;28;20376;-82
2021/04/30 06:36:44;;;;;;;10.30;9.20;;;;;;;;;;5091533;28;20369;-83
2021/04/30 06:39:10;;;;;;;9.48;8.68;;;;;;;;;;5090532;28;20395;-84
2021/04/30 06:41:36;;;;;;;9.50;8.60;;;;;;;;;;5072894;28;20367;-83
2021/04/30 06:44:04;;;;;;;8.75;7.95;;;;;;;;;;5076488;28;20483;-82
2021/04/30 06:46:30;;;;;;;8.63;7.82;;;;;;;;;;5094513;28;20365;-84
2021/04/30 06:48:56;;;;;;;8.63;7.72;;;;;;;;;;5076735;28;20363;-84
2021/04/30 06:51:22;;;;;;;9.02;8.13;;;;;;;;;;5074054;28;20370;-86
2021/04/30 06:53:48;;;;;;;10.23;8.50;;;;;;;;;;5055007;28;20362;-84
2021/04/30 06:56:14;;;;;;;10.77;9.00;;;;;;;;;;5053911;28;20779;-83
2021/04/30 06:58:40;;;;;;;9.77;8.65;;;;;;;;;;5090232;28;20403;-85
2021/04/30 07:01:09;;;;;;;9.75;8.48;;;;;;;;;;5071923;28;20368;-84
2021/04/30 07:03:35;;;;;;;9.20;8.25;;;;;;;;;;5071313;28;20371;-86
2021/04/30 07:06:01;;;;;;;8.80;8.00;;;;;;;;;;5071649;28;20401;-86
2021/04/30 07:08:27;;;;;;;8.55;7.70;;;;;;;;;;5072855;28;20455;-85
2021/04/30 07:10:53;;;;;;;8.70;7.90;;;;;;;;;;5072925;28;20777;-86
2021/04/30 07:13:19;;;;;;;8.43;7.60;;;;;;;;;;5091131;28;20426;-82
2021/04/30 07:15:45;;;;;;;7.63;6.93;;;;;;;;;;5072658;28;20365;-84
2021/04/30 07:18:11;;;;;;;7.68;6.95;;;;;;;;;;5073009;28;20881;-86
2021/04/30 07:20:37;;;;;;;7.95;7.13;;;;;;;;;;5071908;28;20392;-85
2021/04/30 07:23:04;;;;;;;7.43;6.68;;;;;;;;;;5090804;28;20372;-85
2021/04/30 07:25:30;;;;;;;7.83;7.03;;;;;;;;;;5067327;28;20912;-85
2021/04/30 07:27:56;;;;;;;7.38;6.68;;;;;;;;;;5069501;28;20388;-84
2021/04/30 07:30:23;;;;;;;7.07;6.47;;;;;;;;;;5068263;28;20360;-85
2021/04/30 07:32:49;;;;;;;6.80;6.20;;;;;;;;;;5086274;28;20385;-84
2021/04/30 07:35:15;;;;;;;6.78;6.18;;;;;;;;;;5069267;28;20381;-84
2021/04/30 07:37:41;;;;;;;7.38;6.68;;;;;;;;;;5072655;28;21112;-84
2021/04/30 07:40:08;;;;;;;7.88;6.53;;;;;;;;;;5089447;28;20396;-83
2021/04/30 07:42:35;;;;;;;7.10;6.43;;;;;;;;;;5087931;28;20383;-84
2021/04/30 07:45:01;;;;;;;7.22;6.45;;;;;;;;;;5092470;28;20396;-84
2021/04/30 07:47:27;;;;;;;6.78;6.07;;;;;;;;;;5068783;28;20382;-84
2021/04/30 07:49:53;;;;;;;7.18;5.70;;;;;;;;;;5088146;28;20424;-85
2021/04/30 07:52:20;;;;;;;7.33;6.13;;;;;;;;;;5068497;28;20743;-82
2021/04/30 07:54:46;;;;;;;6.65;6.05;;;;;;;;;;5087612;28;20391;-86
2021/04/30 07:57:12;;;;;;;7.25;6.55;;;;;;;;;;5068115;28;20375;-85
2021/04/30 07:59:38;;;;;;;6.72;6.13;;;;;;;;;;5068382;28;20749;-83
2021/04/30 08:02:05;;;;;;;7.43;6.72;;;;;;;;;;5068559;28;20372;-86
2021/04/30 08:04:32;;;;;;;7.15;6.45;;;;;;;;;;5068392;28;20890;-82
2021/04/30 08:06:59;;;;;;;7.57;6.88;;;;;;;;;;5087644;28;20376;-81
2021/04/30 08:09:25;;;;;;;7.75;6.95;;;;;;;;;;5088428;28;20390;-84
2021/04/30 08:11:51;;;;;;;7.80;7.10;;;;;;;;;;5088987;28;20400;-88
2021/04/30 08:14:17;;;;;;;7.53;6.72;;;;;;;;;;5072362;28;20376;-85
2021/04/30 08:16:44;;;;;;;7.97;7.22;;;;;;;;;;5074177;28;20374;-83
2021/04/30 08:19:10;;;;;;;8.55;7.38;;;;;;;;;;5093063;28;20428;-81
2021/04/30 08:21:36;;;;;;;7.63;6.83;;;;;;;;;;5072634;28;20423;-91
2021/04/30 08:24:02;;;;;;;7.88;7.10;;;;;;;;;;5091909;28;20396;-85
2021/04/30 08:26:28;;;;;;;8.03;7.23;;;;;;;;;;5073786;28;20458;-83
2021/04/30 08:28:54;;;;;;;7.20;6.47;;;;;;;;;;5073025;28;20421;-85
2021/04/30 08:31:22;;;;;;;8.07;7.25;;;;;;;;;;5093016;28;20376;-88
2021/04/30 08:33:49;;;;;;;8.05;7.18;;;;;;;;;;5092496;28;20391;-86
2021/04/30 08:36:15;;;;;;;7.53;6.72;;;;;;;;;;5092326;28;20976;-83
2021/04/30 08:38:41;;;;;;;7.35;6.65;;;;;;;;;;5074237;28;20391;-89
2021/04/30 08:41:08;;;;;;;6.70;6.03;;;;;;;;;;5093507;28;20412;-93
2021/04/30 08:43:36;;;;;;;5.88;5.28;;;;;;;;;;5072957;28;20795;-89
2021/04/30 08:46:02;;;;;;;6.13;5.53;;;;;;;;;;5090920;28;20415;-84
2021/04/30 08:48:32;;;;;;;6.20;5.60;;;;;;;;;;5091788;28;20376;-87
2021/04/30 08:50:58;;;;;;;6.00;5.40;;;;;;;;;;5091572;28;20807;-86
2021/04/30 08:53:24;;;;;;;5.85;5.35;;;;;;;;;;5071835;28;20447;-84
2021/04/30 08:55:51;;;;;;;5.93;5.30;;;;;;;;;;5073589;28;20442;-87
2021/04/30 08:58:37;;;;;;;6.47;5.80;;;;;;;;;;5089478;28;20815;-87
2021/04/30 09:01:04;;;;;;;6.10;5.50;;;;;;;;;;5073274;28;20796;-83
2021/04/30 09:03:34;;;;;;;7.32;6.18;;;;;;;;;;5073742;28;20365;-91
2021/04/30 09:06:00;;;;;;;7.30;6.50;;;;;;;;;;5090420;28;20479;-84
2021/04/30 09:08:28;;;;;;;6.60;5.90;;;;;;;;;;5089984;28;20793;-89
2021/04/30 09:10:56;;;;;;;7.65;5.65;;;;;;;;;;5071699;28;20904;-87
2021/04/30 09:13:23;;;;;;;6.65;6.05;;;;;;;;;;5090962;28;20437;-87
2021/04/30 09:16:02;;;;;;;6.40;5.75;;;;;;;;;;5091783;28;20395;-83
2021/04/30 09:18:32;;;;;;;7.82;6.18;;;;;;;;;;5092551;28;20363;-86
2021/04/30 09:21:11;;;;;;;6.18;5.35;;;;;;;;;;5074069;28;20393;-89
2021/04/30 09:23:42;;;;;;;6.55;5.88;;;;;;;;;;5091799;28;20392;-85
2021/04/30 09:26:25;;;;;;;6.35;5.72;;;;;;;;;;5073799;28;20372;-91
2021/04/30 09:28:58;;;;;;;6.40;5.80;;;;;;;;;;5091178;28;20365;-83
2021/04/30 09:31:44;;;;;;;7.90;7.18;;;;;;;;;;5091941;28;20357;-85
2021/04/30 09:34:29;;;;;;;9.00;8.10;;;;;;;;;;5071182;28;20380;-86
2021/04/30 09:36:55;;;;;;;8.80;8.00;;;;;;;;;;5072179;28;20368;-87
2021/04/30 09:39:21;;;;;;;9.77;8.88;;;;;;;;;;5090237;28;20483;-88
2021/04/30 09:42:04;;;;;;;10.18;9.15;;;;;;;;;;5071859;28;20413;-89
2021/04/30 09:44:34;;;;;;;10.18;9.18;;;;;;;;;;5090879;28;20445;-85
2021/04/30 09:47:17;;;;;;;10.40;9.40;;;;;;;;;;5073811;28;20515;-87
2021/04/30 09:49:44;;;;;;;10.77;9.60;;;;;;;;;;5073672;28;20460;-85
2021/04/30 09:52:12;;;;;;;9.88;8.45;;;;;;;;;;5092139;28;20422;-86
2021/04/30 09:54:38;;;;;;;9.02;8.23;;;;;;;;;;5073864;28;20457;-85
2021/04/30 09:57:22;;;;;;;9.48;8.48;;;;;;;;;;5092386;28;20377;-88
2021/04/30 09:59:55;;;;;;;9.20;8.30;;;;;;;;;;5074071;28;20403;-85
2021/04/30 10:02:25;;;;;;;8.60;7.78;;;;;;;;;;5074219;28;20742;-88
2021/04/30 10:04:57;;;;;;;8.95;7.72;;;;;;;;;;5094913;28;20404;-87
2021/04/30 10:07:37;;;;;;;9.18;7.80;;;;;;;;;;5060098;28;20383;-86
2021/04/30 10:10:30;;;;;;;8.30;7.57;;;;;;;;;;5091862;28;20360;-90
2021/04/30 10:13:00;;;;;;;8.38;7.32;;;;;;;;;;5069003;28;20389;-87
2021/04/30 10:15:27;;;;;;;8.10;7.28;;;;;;;;;;5091841;28;20373;-89
2021/04/30 10:17:56;;;;;;;8.65;7.75;;;;;;;;;;5074349;28;20384;-86
2021/04/30 10:20:22;;;;;;;8.85;7.95;;;;;;;;;;5074426;28;20450;-89
2021/04/30 10:22:49;;;;;;;7.90;7.10;;;;;;;;;;5092544;28;20387;-88
2021/04/30 10:25:18;;;;;;;8.35;7.45;;;;;;;;;;5088645;28;20398;-91
2021/04/30 10:27:46;;;;;;;7.45;6.75;;;;;;;;;;5070721;28;20372;-90
2021/04/30 10:30:24;;;;;;;7.65;6.45;;;;;;;;;;5069885;28;20460;-86
2021/04/30 10:32:56;;;;;;;9.27;7.18;;;;;;;;;;5071729;28;20423;-87
2021/04/30 10:35:29;;;;;;;7.60;6.80;;;;;;;;;;5069840;28;20377;-89
2021/04/30 10:37:58;;;;;;;7.80;7.10;;;;;;;;;;5070314;28;20949;-87
2021/04/30 10:40:26;;;;;;;7.35;6.65;;;;;;;;;;5092301;28;20893;-90
2021/04/30 10:42:58;;;;;;;7.97;7.20;;;;;;;;;;5094635;28;20425;-87
2021/04/30 10:45:25;;;;;;;7.47;6.82;;;;;;;;;;5075410;28;20483;-86
2021/04/30 10:48:11;;;;;;;7.18;6.57;;;;;;;;;;5074623;28;20372;-88
2021/04/30 10:50:37;;;;;;;8.88;7.00;;;;;;;;;;5072287;28;20372;-86
2021/04/30 10:53:23;;;;;;;6.97;6.35;;;;;;;;;;5069305;28;20870;-87
2021/04/30 10:55:49;;;;;;;8.25;7.20;;;;;;;;;;5069874;28;20886;-85
2021/04/30 10:58:34;;;;;;;8.93;8.02;;;;;;;;;;5070256;28;20381;-87
2021/04/30 11:01:19;;;;;;;8.25;7.40;;;;;;;;;;5070255;28;20385;-86
2021/04/30 11:04:05;;;;;;;8.07;7.28;;;;;;;;;;5070820;28;20372;-87
2021/04/30 11:06:32;;;;;;;7.63;6.93;;;;;;;;;;5070736;28;20802;-89
2021/04/30 11:09:01;;;;;;;8.37;7.50;;;;;;;;;;5070418;28;20980;-86
2021/04/30 11:11:45;;;;;;;8.40;7.60;;;;;;;;;;5088707;28;20364;-85
2021/04/30 11:14:20;;;;;;;9.10;7.95;;;;;;;;;;5087970;28;20435;-86
2021/04/30 11:16:47;;;;;;;8.68;7.88;;;;;;;;;;5069034;28;20376;-85
2021/04/30 11:19:13;;;;;;;9.37;8.37;;;;;;;;;;5070017;28;20407;-85
2021/04/30 11:21:46;;;;;;;9.60;8.70;;;;;;;;;;5088137;28;20401;-83
2021/04/30 11:24:32;;;;;;;9.82;8.93;;;;;;;;;;5088290;28;20886;-83
2021/04/30 11:27:16;;;;;;;10.45;9.38;;;;;;;;;;5089901;28;20848;-84
2021/04/30 11:29:42;;;;;;;10.38;9.38;;;;;;;;;;5071912;28;20402;-85
2021/04/30 11:32:18;;;;;;;10.75;9.75;;;;;;;;;;5090810;28;20445;-85
2021/04/30 11:34:57;;;;;;;11.13;10.02;;;;;;;;;;5087218;28;22053;-86
2021/04/30 11:37:25;;;;;;;11.20;10.05;;;;;;;;;;5088004;28;20743;-86
2021/04/30 11:39:55;;;;;;;11.20;10.10;;;;;;;;;;5073096;28;20368;-85
2021/04/30 11:42:27;;;;;;;11.82;10.70;;;;;;;;;;5087302;28;20376;-85
2021/04/30 11:44:53;;;;;;;11.05;9.93;;;;;;;;;;5071250;28;20427;-85
2021/04/30 11:47:27;;;;;;;12.10;10.90;;;;;;;;;;5088342;28;20360;-81
2021/04/30 11:49:54;;;;;;;12.50;10.90;;;;;;;;;;5088959;28;20395;-84
2021/04/30 11:52:27;;;;;;;12.95;11.75;;;;;;;;;;5091086;28;20376;-88
2021/04/30 11:55:00;;;;;;;13.32;11.82;;;;;;;;;;5092274;28;20376;-88
2021/04/30 11:57:28;;;;;;;13.68;12.18;;;;;;;;;;5072131;28;20440;-87
2021/04/30 11:59:59;;;;;;;13.88;12.50;;;;;;;;;;5092082;28;20361;-85
2021/04/30 12:02:27;;;;;;;13.10;11.90;;;;;;;;;;5074516;28;20391;-87
2021/04/30 12:04:54;;;;;;;12.95;11.65;;;;;;;;;;5069062;28;20392;-87
2021/04/30 12:07:26;;;;;;;13.55;12.23;;;;;;;;;;5073579;28;20451;-86
2021/04/30 12:09:53;;;;;;;14.80;12.30;;;;;;;;;;5072836;28;20376;-86
2021/04/30 12:12:29;;;;;;;13.53;12.23;;;;;;;;;;5092714;28;20867;-85
2021/04/30 12:15:06;;;;;;;13.43;12.13;;;;;;;;;;5074371;28;20368;-89
2021/04/30 12:17:36;;;;;;;12.20;11.00;;;;;;;;;;5071787;28;20477;-88
2021/04/30 12:20:17;;;;;;;12.32;11.10;;;;;;;;;;5072301;28;20391;-87
2021/04/30 12:23:02;;;;;;;12.73;11.60;;;;;;;;;;5072714;28;20376;-87
2021/04/30 12:25:30;;;;;;;12.32;11.02;;;;;;;;;;5092651;28;20435;-86
2021/04/30 12:28:16;;;;;;;13.18;11.88;;;;;;;;;;5074634;28;20372;-89
2021/04/30 12:30:42;;;;;;;14.63;12.60;;;;;;;;;;5092794;28;20484;-85
2021/04/30 12:33:08;;;;;;;14.00;12.55;;;;;;;;;;5087700;28;20409;-84
2021/04/30 12:35:34;;;;;;;13.55;12.15;;;;;;;;;;5086967;28;20846;-85
2021/04/30 12:38:02;;;;;;;13.20;11.50;;;;;;;;;;5083001;28;20834;-87
2021/04/30 12:40:29;;;;;;;12.43;11.23;;;;;;;;;;5076110;28;20356;-86
2021/04/30 12:42:56;;;;;;;12.53;11.33;;;;;;;;;;5093126;28;20368;-88
2021/04/30 12:45:22;;;;;;;12.83;11.57;;;;;;;;;;5093736;28;20456;-86
2021/04/30 12:47:50;;;;;;;12.00;10.88;;;;;;;;;;5075121;28;20435;-89
2021/04/30 12:50:17;;;;;;;14.02;12.63;;;;;;;;;;5075520;28;20867;-89
2021/04/30 12:52:47;;;;;;;13.35;11.95;;;;;;;;;;5075652;28;20408;-87
2021/04/30 12:55:22;;;;;;;12.25;10.93;;;;;;;;;;5093185;28;20423;-86
2021/04/30 12:57:58;;;;;;;13.68;11.45;;;;;;;;;;5093982;28;20364;-88
2021/04/30 13:00:24;;;;;;;12.77;11.48;;;;;;;;;;5092990;28;20384;-89
2021/04/30 13:02:50;;;;;;;13.18;11.95;;;;;;;;;;5079662;28;20949;-83
2021/04/30 13:05:16;;;;;;;13.20;11.82;;;;;;;;;;5093751;28;20431;-87
2021/04/30 13:07:42;;;;;;;12.93;11.73;;;;;;;;;;5076922;28;20378;-84
2021/04/30 13:10:08;;;;;;;12.52;11.32;;;;;;;;;;5075153;28;20418;-88
2021/04/30 13:12:35;;;;;;;13.30;12.00;;;;;;;;;;5075713;28;20450;-86
2021/04/30 13:15:01;;;;;;;12.77;11.47;;;;;;;;;;5074188;28;20490;-85
2021/04/30 13:17:31;;;;;;;13.13;11.80;;;;;;;;;;5074312;28;20379;-88
2021/04/30 13:20:14;;;;;;;12.52;11.43;;;;;;;;;;5074629;28;20809;-86
2021/04/30 13:22:40;;;;;;;14.43;12.50;;;;;;;;;;5075012;28;20782;-88
2021/04/30 13:25:06;;;;;;;13.48;11.93;;;;;;;;;;5075175;28;20392;-87
2021/04/30 13:27:47;;;;;;;13.27;12.00;;;;;;;;;;5093985;28;20365;-85
2021/04/30 13:30:14;;;;;;;14.15;12.52;;;;;;;;;;5078435;28;20403;-84
2021/04/30 13:32:41;;;;;;;13.00;11.70;;;;;;;;;;5069779;28;20494;-86
2021/04/30 13:35:07;;;;;;;14.55;13.15;;;;;;;;;;5071685;28;20755;-82
2021/04/30 13:37:38;;;;;;;13.97;12.53;;;;;;;;;;5073804;28;20368;-84
2021/04/30 13:40:06;;;;;;;14.23;12.82;;;;;;;;;;5092249;28;20360;-86
2021/04/30 13:42:32;;;;;;;14.65;13.20;;;;;;;;;;5074376;28;20789;-84
2021/04/30 13:44:59;;;;;;;14.52;13.02;;;;;;;;;;5092450;28;20401;-85
2021/04/30 13:47:42;;;;;;;15.00;13.27;;;;;;;;;;5093197;28;20842;-86
2021/04/30 13:50:12;;;;;;;14.43;13.02;;;;;;;;;;5092401;28;20368;-84
2021/04/30 13:52:38;;;;;;;14.93;13.52;;;;;;;;;;5075790;28;20846;-84
2021/04/30 13:55:05;;;;;;;13.77;12.48;;;;;;;;;;5074009;28;20384;-85
2021/04/30 13:57:31;;;;;;;14.37;12.97;;;;;;;;;;5073660;28;21082;-87
2021/04/30 13:59:57;;;;;;;15.20;13.13;;;;;;;;;;5074887;28;20375;-83
2021/04/30 14:02:23;;;;;;;13.43;12.23;;;;;;;;;;5072164;28;20387;-86
2021/04/30 14:04:50;;;;;;;12.57;11.25;;;;;;;;;;5072228;28;20392;-85
2021/04/30 14:07:16;;;;;;;12.55;11.25;;;;;;;;;;5090862;28;20356;-85
2021/04/30 14:09:44;;;;;;;13.00;11.80;;;;;;;;;;5091217;28;20356;-84
2021/04/30 14:12:11;;;;;;;11.87;10.77;;;;;;;;;;5088826;28;20420;-83
2021/04/30 14:14:38;;;;;;;11.13;10.13;;;;;;;;;;5090069;28;20372;-84
2021/04/30 14:17:05;;;;;;;10.75;9.70;;;;;;;;;;5069371;28;20731;-81
2021/04/30 14:19:31;;;;;;;11.02;9.93;;;;;;;;;;5089916;28;20761;-84
2021/04/30 14:22:01;;;;;;;10.70;9.60;;;;;;;;;;5071027;28;20376;-85
2021/04/30 14:24:27;;;;;;;11.65;9.52;;;;;;;;;;5091205;28;20750;-83
2021/04/30 14:26:53;;;;;;;8.70;7.90;;;;;;;;;;5074095;28;20380;-85
2021/04/30 14:29:20;;;;;;;8.90;7.80;;;;;;;;;;5072170;28;20380;-83
2021/04/30 14:31:46;;;;;;;8.95;8.15;;;;;;;;;;5069814;28;20471;-85